Time;durP1;ratioP1;P1;durP2;ratioP2;P2;SDS_P1;SDS_P2;PMS_P1;PMS_P2;Temp;Humidity;BMP_temperature;BMP_pressure;BME280_temperature;BME280_humidity;BME280_pressure;Samples;Min_cycle;Max_cycle;Signal;HPM_P1;HPM_P2
2024/01/27 00:02:01;;;;;;;7.10;4.07;;;;;;;7.63;69.19;100323.16;4391443;32;20160;-73
2024/01/27 00:04:30;;;;;;;5.47;4.50;;;;;;;7.49;69.57;100326.50;4391288;32;20180;-73
2024/01/27 00:06:59;;;;;;;8.57;4.95;;;;;;;7.56;69.37;100317.34;4391178;32;20146;-73
2024/01/27 00:09:29;;;;;;;7.78;4.62;;;;;;;7.62;69.21;100314.38;4391287;32;20487;-73
2024/01/27 00:11:59;;;;;;;9.15;5.35;;;;;;;7.60;68.96;100324.19;4391306;32;20184;-73
2024/01/27 00:14:28;;;;;;;13.32;4.68;;;;;;;7.51;69.32;100326.41;4391285;32;20198;-73
2024/01/27 00:16:58;;;;;;;6.70;3.92;;;;;;;7.33;68.92;100320.28;4402755;27;20177;-73
2024/01/27 00:19:27;;;;;;;8.48;3.85;;;;;;;7.37;68.47;100335.00;4390899;32;20181;-73
2024/01/27 00:21:56;;;;;;;9.30;4.22;;;;;;;7.38;67.55;100319.09;4390945;32;20184;-73
2024/01/27 00:24:26;;;;;;;5.37;3.05;;;;;;;7.50;66.71;100338.75;4391101;32;20177;-73
2024/01/27 00:26:55;;;;;;;2.92;2.40;;;;;;;7.44;65.60;100332.91;4391161;32;20157;-73
2024/01/27 00:29:29;;;;;;;7.47;2.47;;;;;;;7.42;65.37;100342.69;4379503;32;20173;-73
2024/01/27 00:31:58;;;;;;;4.68;2.70;;;;;;;7.33;65.07;100336.09;4393258;32;20430;-73
2024/01/27 00:34:27;;;;;;;2.00;1.80;;;;;;;7.43;64.34;100353.16;4393202;32;20177;-73
2024/01/27 00:36:57;;;;;;;2.92;2.65;;;;;;;7.32;64.03;100350.19;4393312;32;20568;-73
2024/01/27 00:39:26;;;;;;;2.87;2.35;;;;;;;7.35;63.05;100344.75;4393367;32;20185;-73
2024/01/27 00:41:58;;;;;;;4.15;2.37;;;;;;;7.38;63.13;100361.28;4393233;32;20471;-73
2024/01/27 00:44:30;;;;;;;3.80;2.33;;;;;;;7.37;62.92;100356.09;4393387;32;20189;-73
2024/01/27 00:46:59;;;;;;;4.87;3.22;;;;;;;7.42;62.84;100369.06;4404594;27;20176;-73
2024/01/27 00:49:29;;;;;;;3.28;2.03;;;;;;;7.52;63.03;100381.72;4393104;32;20150;-73
2024/01/27 00:54:36;;;;;;;2.60;2.00;;;;;;;7.49;63.13;100405.59;4393054;32;20499;-73
2024/01/27 00:57:07;;;;;;;4.65;2.03;;;;;;;7.31;63.65;100425.78;4393076;32;20145;-73
2024/01/27 00:59:39;;;;;;;2.92;1.90;;;;;;;7.41;63.66;100444.66;4393249;32;20137;-73
2024/01/27 01:02:08;;;;;;;3.67;2.57;;;;;;;7.25;63.46;100449.81;4393322;32;20165;-73
2024/01/27 01:04:37;;;;;;;3.90;2.37;;;;;;;7.33;63.33;100450.28;4393077;32;20134;-73
2024/01/27 01:07:08;;;;;;;2.85;2.05;;;;;;;7.21;63.77;100460.56;4393116;32;20158;-73
2024/01/27 01:09:37;;;;;;;4.82;2.15;;;;;;;7.32;63.54;100463.53;4393192;32;20165;-73
2024/01/27 01:12:09;;;;;;;3.92;2.17;;;;;;;7.26;63.99;100469.09;4392959;32;20411;-73
2024/01/27 01:14:44;;;;;;;2.50;2.30;;;;;;;7.41;63.63;100463.13;4392966;32;20142;-73
2024/01/27 01:17:13;;;;;;;4.15;2.45;;;;;;;7.26;63.88;100467.31;4398212;27;20177;-73
2024/01/27 01:19:42;;;;;;;8.63;2.35;;;;;;;7.43;63.95;100474.44;4392696;32;20169;-73
2024/01/27 01:22:14;;;;;;;6.07;2.70;;;;;;;7.31;63.78;100481.13;4393242;32;20173;-73
2024/01/27 01:24:44;;;;;;;2.50;2.12;;;;;;;7.41;63.82;100486.84;4392934;32;20157;-73
2024/01/27 01:27:18;;;;;;;4.50;2.12;;;;;;;7.33;63.79;100484.56;4393134;32;20150;-73
2024/01/27 01:29:49;;;;;;;3.10;2.35;;;;;;;7.43;63.58;100489.41;4393022;32;20483;-73
2024/01/27 01:32:19;;;;;;;4.93;2.65;;;;;;;7.37;63.98;100485.28;4393253;32;20141;-73
2024/01/27 01:34:49;;;;;;;4.80;2.40;;;;;;;7.55;63.24;100473.84;4392856;32;20200;-73
2024/01/27 01:37:18;;;;;;;5.47;3.58;;;;;;;7.30;63.54;100478.56;4392935;32;20161;-73
2024/01/27 01:39:48;;;;;;;2.47;2.28;;;;;;;7.38;63.55;100492.25;4392594;32;20165;-73
2024/01/27 01:42:17;;;;;;;2.08;1.87;;;;;;;7.35;62.91;100492.38;4392588;32;20280;-73
2024/01/27 01:44:46;;;;;;;2.47;1.90;;;;;;;7.19;63.53;100499.28;4392524;32;20260;-73
2024/01/27 01:47:22;;;;;;;2.53;2.00;;;;;;;7.30;62.39;100508.41;4398054;27;20173;-73
2024/01/27 01:49:51;;;;;;;3.22;2.33;;;;;;;7.28;62.05;100512.91;4392768;32;20145;-73
2024/01/27 01:52:22;;;;;;;6.22;2.20;;;;;;;7.23;62.08;100514.87;4393007;32;20425;-73
2024/01/27 01:54:51;;;;;;;4.72;2.12;;;;;;;7.16;61.87;100518.72;4392657;32;20149;-73
2024/01/27 01:57:21;;;;;;;2.85;1.80;;;;;;;7.13;61.62;100530.28;4379012;32;20142;-73
2024/01/27 01:59:51;;;;;;;5.80;2.55;;;;;;;7.11;61.16;100537.38;4392785;32;20153;-73
2024/01/27 02:02:25;;;;;;;2.35;1.92;;;;;;;7.12;60.69;100544.34;4393150;32;20177;-73
2024/01/27 02:04:55;;;;;;;2.33;1.80;;;;;;;7.08;60.87;100549.84;4392875;32;20177;-73
2024/01/27 02:07:24;;;;;;;2.25;1.73;;;;;;;7.10;60.36;100561.19;4392634;32;20164;-73
2024/01/27 02:09:54;;;;;;;2.25;1.95;;;;;;;7.04;59.21;100551.75;4392607;32;20145;-73
2024/01/27 02:12:23;;;;;;;2.83;1.80;;;;;;;7.25;59.38;100555.22;4392751;32;20399;-73
2024/01/27 02:14:53;;;;;;;2.08;1.70;;;;;;;7.29;58.88;100553.31;4392640;32;20133;-73
2024/01/27 02:17:30;;;;;;;2.85;1.70;;;;;;;6.89;59.40;100548.03;4397811;27;20221;-73
2024/01/27 02:20:00;;;;;;;4.12;1.80;;;;;;;7.20;58.59;100543.16;4392424;32;20130;-73
2024/01/27 02:22:35;;;;;;;2.30;1.73;;;;;;;6.92;58.67;100541.75;4392325;32;20157;-73
2024/01/27 02:25:06;;;;;;;3.25;1.95;;;;;;;7.06;58.46;100533.25;4392777;32;20192;-73
2024/01/27 02:27:35;;;;;;;2.83;1.60;;;;;;;6.96;58.67;100556.50;4392813;32;20152;-73
2024/01/27 02:30:09;;;;;;;1.75;1.33;;;;;;;6.83;58.05;100529.00;4392884;32;20137;-73
2024/01/27 02:32:40;;;;;;;1.62;1.52;;;;;;;6.77;58.69;100521.34;4393391;32;20149;-73
2024/01/27 02:37:44;;;;;;;1.80;1.37;;;;;;;6.60;58.83;100503.66;4393087;32;20248;-73
2024/01/27 02:40:15;;;;;;;6.62;2.30;;;;;;;6.64;58.75;100527.16;4393310;32;20153;-73
2024/01/27 02:42:44;;;;;;;2.35;2.08;;;;;;;6.69;58.65;100516.41;4393333;32;20150;-73
2024/01/27 02:45:17;;;;;;;5.05;1.67;;;;;;;6.55;58.95;100516.16;4392825;32;20308;-73
2024/01/27 02:47:47;;;;;;;1.77;1.58;;;;;;;6.47;58.79;100521.75;4376518;32;20197;-73
2024/01/27 02:50:16;;;;;;;1.70;1.40;;;;;;;6.44;58.86;100550.00;4377069;32;20149;-73
2024/01/27 02:52:45;;;;;;;2.25;1.40;;;;;;;6.36;59.04;100552.94;4377490;32;20476;-73
2024/01/27 02:55:23;;;;;;;2.53;1.60;;;;;;;6.40;59.15;100560.62;4377698;32;20145;-73
2024/01/27 02:57:55;;;;;;;1.95;1.50;;;;;;;6.44;59.17;100574.53;4377935;32;20145;-73
2024/01/27 03:00:25;;;;;;;2.78;1.55;;;;;;;6.45;59.01;100578.88;4377998;32;20145;-73
2024/01/27 03:02:57;;;;;;;5.22;1.75;;;;;;;6.55;58.97;100590.75;4377551;32;20483;-73
2024/01/27 03:05:26;;;;;;;3.22;1.65;;;;;;;6.62;58.72;100589.56;4377970;32;20153;-73
2024/01/27 03:07:56;;;;;;;1.95;1.62;;;;;;;6.65;58.95;100594.72;4369836;32;243196;-73
2024/01/27 03:10:27;;;;;;;1.80;1.70;;;;;;;6.54;59.26;100593.44;4377439;32;20142;-73
2024/01/27 03:12:56;;;;;;;6.03;1.62;;;;;;;6.54;59.47;100586.41;4377468;32;20173;-73
2024/01/27 03:15:28;;;;;;;3.67;2.00;;;;;;;6.38;60.07;100599.34;4382804;27;20161;-73
2024/01/27 03:17:57;;;;;;;2.45;1.80;;;;;;;6.42;60.15;100610.59;4362248;32;20138;-73
2024/01/27 03:20:27;;;;;;;4.35;2.03;;;;;;;6.21;60.51;100622.84;4362786;33;20185;-73
2024/01/27 03:22:57;;;;;;;3.67;2.83;;;;;;;6.31;60.05;100644.41;4362487;32;20178;-73
2024/01/27 03:25:27;;;;;;;4.75;2.00;;;;;;;6.24;60.36;100648.19;4362374;32;20178;-73
2024/01/27 03:27:56;;;;;;;7.03;2.30;;;;;;;6.29;60.11;100651.47;4362389;32;20165;-73
2024/01/27 03:30:26;;;;;;;1.60;1.45;;;;;;;6.29;60.13;100654.13;4362321;32;20173;-73
2024/01/27 03:32:55;;;;;;;3.33;1.83;;;;;;;6.29;60.11;100664.63;4362251;32;20146;-73
2024/01/27 03:35:24;;;;;;;3.53;2.12;;;;;;;6.24;60.21;100659.56;4362695;32;20142;-73
2024/01/27 03:37:53;;;;;;;2.60;1.60;;;;;;;6.33;60.07;100668.88;4362071;32;20403;-73
2024/01/27 03:40:23;;;;;;;2.45;2.03;;;;;;;6.26;60.15;100673.53;4362144;32;20193;-73
2024/01/27 03:42:53;;;;;;;2.28;1.80;;;;;;;6.25;60.48;100677.06;4361986;32;20170;-73
2024/01/27 03:45:22;;;;;;;1.70;1.60;;;;;;;6.45;60.00;100692.06;4375888;27;20146;-73
2024/01/27 03:47:52;;;;;;;4.45;1.80;;;;;;;6.58;59.59;100689.81;4391008;32;20145;-73
2024/01/27 03:50:23;;;;;;;2.70;1.87;;;;;;;6.32;60.19;100691.69;4392227;32;20149;-73
2024/01/27 03:52:51;;;;;;;5.65;2.30;;;;;;;6.34;60.39;100704.81;4392304;32;20153;-73
2024/01/27 03:55:32;;;;;;;2.40;1.83;;;;;;;6.12;61.19;100702.13;4391768;32;20547;-73
2024/01/27 03:58:03;;;;;;;2.80;1.90;;;;;;;5.92;61.91;100702.91;4392026;32;20153;-73
2024/01/27 04:00:33;;;;;;;1.60;1.50;;;;;;;5.84;62.24;100699.66;4391740;32;20172;-73
2024/01/27 04:03:03;;;;;;;2.92;1.95;;;;;;;5.93;62.07;100704.59;4393271;32;20482;-73
2024/01/27 04:05:32;;;;;;;2.40;2.12;;;;;;;6.01;62.03;100714.84;4394647;32;20173;-73
2024/01/27 04:08:02;;;;;;;2.15;1.95;;;;;;;5.84;62.71;100718.06;4393745;32;20149;-73
2024/01/27 04:10:31;;;;;;;2.15;1.87;;;;;;;5.84;63.01;100725.97;4393763;32;20176;-73
2024/01/27 04:13:03;;;;;;;2.87;1.95;;;;;;;5.99;62.61;100732.47;4393824;32;20137;-73
2024/01/27 04:15:37;;;;;;;1.87;1.73;;;;;;;6.04;62.50;100731.38;4397188;27;20145;-73
2024/01/27 04:18:08;;;;;;;3.35;2.10;;;;;;;5.99;62.59;100741.22;4378840;32;20238;-73
2024/01/27 04:20:37;;;;;;;4.60;2.25;;;;;;;5.99;62.53;100738.59;4378781;32;20419;-73
2024/01/27 04:23:07;;;;;;;3.60;2.20;;;;;;;5.72;62.95;100734.28;4379308;32;20157;-73
2024/01/27 04:25:36;;;;;;;3.25;1.98;;;;;;;5.93;62.44;100728.28;4379000;32;20141;-73
2024/01/27 04:28:09;;;;;;;5.70;2.08;;;;;;;5.55;63.08;100732.28;4378947;32;20150;-73
2024/01/27 04:30:38;;;;;;;4.87;1.98;;;;;;;5.79;61.95;100739.28;4378744;32;20181;-73
2024/01/27 04:33:07;;;;;;;5.93;2.00;;;;;;;5.62;61.61;100749.53;4379260;32;20137;-72
2024/01/27 04:35:37;;;;;;;2.45;2.00;;;;;;;5.67;61.32;100760.75;4379076;32;20173;-73
2024/01/27 04:38:09;;;;;;;3.33;2.42;;;;;;;5.53;61.00;100766.47;4379191;32;20213;-73
2024/01/27 04:40:38;;;;;;;2.97;1.80;;;;;;;5.66;60.65;100770.41;4378902;32;20178;-72
2024/01/27 04:43:09;;;;;;;3.60;1.83;;;;;;;5.76;60.50;100773.56;4378868;32;20495;-73
2024/01/27 04:45:41;;;;;;;3.22;2.42;;;;;;;5.80;60.18;100774.31;4394404;27;20735;-73
2024/01/27 04:48:13;;;;;;;5.00;1.70;;;;;;;5.72;60.39;100774.59;4409103;32;20157;-73
2024/01/27 04:50:43;;;;;;;6.05;2.33;;;;;;;5.67;60.33;100771.28;4408948;32;20470;-73
2024/01/27 04:53:12;;;;;;;5.00;1.85;;;;;;;5.95;59.83;100778.22;4409182;32;20152;-72
2024/01/27 04:55:44;;;;;;;5.18;2.28;;;;;;;5.73;60.34;100776.31;4402379;32;20161;-73
2024/01/27 04:58:18;;;;;;;2.25;1.90;;;;;;;5.61;60.42;100782.84;4408625;32;20169;-73
2024/01/27 05:00:47;;;;;;;2.87;2.28;;;;;;;5.60;60.22;100788.16;4408700;32;20177;-73
2024/01/27 05:03:17;;;;;;;4.18;2.08;;;;;;;5.49;60.26;100799.03;4408882;32;20157;-73
2024/01/27 05:05:46;;;;;;;5.80;2.67;;;;;;;5.57;60.39;100806.66;4402283;32;20146;-73
2024/01/27 05:08:15;;;;;;;3.08;2.12;;;;;;;5.63;59.90;100799.44;4409188;32;20157;-72
2024/01/27 05:10:45;;;;;;;6.05;2.60;;;;;;;5.54;60.04;100804.13;4408573;32;20153;-73
2024/01/27 05:13:14;;;;;;;7.12;2.85;;;;;;;5.67;59.42;100821.22;4408493;32;20482;-73
2024/01/27 05:15:46;;;;;;;6.18;2.35;;;;;;;5.64;59.28;100806.41;4405598;27;20161;-73
2024/01/27 05:18:15;;;;;;;7.00;2.97;;;;;;;5.51;59.50;100807.75;4393485;32;20396;-73
2024/01/27 05:20:45;;;;;;;6.90;2.40;;;;;;;5.53;58.73;100812.94;4393549;32;20169;-73
2024/01/27 05:25:50;;;;;;;1.83;1.73;;;;;;;5.64;57.93;100813.44;4393533;32;20150;-73
2024/01/27 05:28:21;;;;;;;3.08;2.55;;;;;;;5.81;56.59;100805.81;4393638;32;20142;-72
2024/01/27 05:30:52;;;;;;;7.28;2.87;;;;;;;5.68;57.24;100817.69;4394033;32;20162;-73
2024/01/27 05:33:24;;;;;;;5.72;2.30;;;;;;;5.48;57.62;100815.72;4394149;32;20169;-73
2024/01/27 05:35:54;;;;;;;10.85;2.62;;;;;;;5.52;57.24;100814.72;4394226;32;20137;-73
2024/01/27 05:38:23;;;;;;;7.80;2.20;;;;;;;5.34;57.25;100829.31;4394687;32;20478;-72
2024/01/27 05:40:53;;;;;;;8.27;2.10;;;;;;;5.38;57.13;100836.19;4394271;32;20145;-72
2024/01/27 05:43:23;;;;;;;4.32;2.22;;;;;;;5.28;57.13;100833.94;4393882;32;20154;-72
2024/01/27 05:45:54;;;;;;;5.80;2.20;;;;;;;5.14;56.12;100850.97;4405144;27;20172;-72
2024/01/27 05:48:26;;;;;;;4.65;2.00;;;;;;;5.43;55.51;100855.31;4394110;32;20153;-72
2024/01/27 05:50:56;;;;;;;4.00;1.98;;;;;;;5.28;55.84;100847.94;4394100;32;20181;-73
2024/01/27 05:53:29;;;;;;;6.78;3.12;;;;;;;5.38;55.93;100872.13;4394400;32;20339;-72
2024/01/27 05:55:59;;;;;;;6.18;2.40;;;;;;;5.28;55.94;100884.72;4394241;32;20410;-73
2024/01/27 05:58:29;;;;;;;6.35;3.05;;;;;;;5.40;55.98;100897.47;4394215;32;20153;-73
2024/01/27 06:01:00;;;;;;;6.87;3.45;;;;;;;5.60;55.48;100911.72;4393770;32;20222;-73
2024/01/27 06:03:33;;;;;;;9.63;3.37;;;;;;;5.35;55.74;100914.31;4393857;32;20172;-73
2024/01/27 06:06:03;;;;;;;12.73;8.45;;;;;;;5.56;55.66;100924.13;4393541;32;20134;-73
2024/01/27 06:08:32;;;;;;;4.62;2.70;;;;;;;5.63;55.07;100920.38;4394169;32;20459;-73
2024/01/27 06:11:02;;;;;;;18.12;7.07;;;;;;;5.60;55.54;100917.84;4393735;32;20125;-73
2024/01/27 06:13:37;;;;;;;19.12;8.10;;;;;;;5.74;55.61;100924.41;4393485;32;20172;-73
2024/01/27 06:16:09;;;;;;;14.98;8.20;;;;;;;5.87;55.48;100915.22;4404681;27;20142;-73
2024/01/27 06:18:42;;;;;;;18.17;6.80;;;;;;;5.75;55.89;100926.16;4379887;32;20153;-73
2024/01/27 06:21:11;;;;;;;12.85;4.35;;;;;;;5.51;56.82;100927.81;4393319;32;20160;-73
2024/01/27 06:23:41;;;;;;;6.68;4.07;;;;;;;5.50;56.96;100924.28;4393471;32;20222;-73
2024/01/27 06:26:10;;;;;;;7.40;2.87;;;;;;;5.68;57.03;100926.34;4392783;32;20141;-73
2024/01/27 06:28:40;;;;;;;4.15;2.50;;;;;;;5.64;57.43;100922.09;4379796;32;20217;-72
2024/01/27 06:31:10;;;;;;;8.02;4.28;;;;;;;5.49;58.17;100927.84;4393190;32;20157;-73
2024/01/27 06:33:40;;;;;;;8.70;2.70;;;;;;;5.51;58.34;100928.66;4392784;32;20148;-73
2024/01/27 06:36:10;;;;;;;3.62;2.78;;;;;;;5.62;58.11;100931.81;4392674;32;20157;-73
2024/01/27 06:38:40;;;;;;;7.87;3.00;;;;;;;5.35;58.57;100936.19;4392980;32;20141;-73
2024/01/27 06:41:10;;;;;;;7.80;3.72;;;;;;;5.62;58.15;100934.44;4393253;32;20141;-73
2024/01/27 06:43:39;;;;;;;6.07;2.92;;;;;;;5.69;57.44;100948.22;4392554;32;20157;-73
2024/01/27 06:46:10;;;;;;;2.20;2.00;;;;;;;5.38;58.56;100959.72;4401218;27;20169;-73
2024/01/27 06:48:41;;;;;;;5.07;2.95;;;;;;;5.35;58.68;100951.09;4408237;32;20136;-73
2024/01/27 06:51:11;;;;;;;6.57;3.12;;;;;;;5.46;58.46;100956.84;4408128;32;20149;-73
2024/01/27 06:53:40;;;;;;;9.88;4.95;;;;;;;5.47;58.21;100945.44;4408240;32;20137;-73
2024/01/27 06:56:09;;;;;;;3.65;2.10;;;;;;;5.50;58.39;100942.69;4404367;32;20133;-73
2024/01/27 06:58:38;;;;;;;4.70;2.67;;;;;;;5.41;58.58;100940.38;4406413;32;20160;-73
2024/01/27 07:01:08;;;;;;;5.75;2.90;;;;;;;5.49;58.41;100943.62;4407977;32;20145;-73
2024/01/27 07:03:44;;;;;;;2.62;1.90;;;;;;;6.02;57.27;100943.69;4407971;32;20141;-73
2024/01/27 07:06:13;;;;;;;6.57;1.92;;;;;;;6.32;56.35;100952.28;4403146;32;20133;-73
2024/01/27 07:08:43;;;;;;;4.05;2.08;;;;;;;6.79;54.76;100936.53;4406848;32;20133;-73
2024/01/27 07:11:12;;;;;;;5.97;2.30;;;;;;;6.46;55.48;100932.53;4408141;32;20149;-72
2024/01/27 07:13:42;;;;;;;7.35;3.35;;;;;;;6.95;54.36;100944.75;4407959;32;20140;-73
2024/01/27 07:16:12;;;;;;;6.80;1.73;;;;;;;6.75;54.69;100942.84;4408246;27;20154;-73
2024/01/27 07:18:45;;;;;;;13.02;4.03;;;;;;;6.57;55.26;100961.94;4392744;32;20148;-73
2024/01/27 07:21:17;;;;;;;8.55;2.67;;;;;;;6.48;55.58;100960.50;4392107;32;20158;-73
2024/01/27 07:23:52;;;;;;;6.35;2.20;;;;;;;6.54;55.52;100969.97;4392441;32;20145;-73
2024/01/27 07:26:35;;;;;;;4.30;2.10;;;;;;;6.67;55.58;100958.06;4392844;32;20140;-73
2024/01/27 07:29:05;;;;;;;7.32;1.80;;;;;;;6.99;54.78;100967.41;4392704;32;20149;-73
2024/01/27 07:31:35;;;;;;;4.80;2.00;;;;;;;6.93;54.43;100967.66;4392514;32;20204;-73
2024/01/27 07:34:07;;;;;;;3.55;2.10;;;;;;;6.72;54.92;100981.59;4392502;32;20141;-73
2024/01/27 07:36:36;;;;;;;11.63;2.42;;;;;;;7.04;54.25;100978.63;4392425;32;20152;-73
2024/01/27 07:39:06;;;;;;;3.87;1.80;;;;;;;7.05;54.20;100975.13;4394145;32;20153;-73
2024/01/27 07:41:36;;;;;;;5.68;2.10;;;;;;;7.44;53.31;100978.91;4394067;32;20149;-74
2024/01/27 07:44:10;;;;;;;4.37;2.60;;;;;;;7.53;52.96;100976.78;4394496;32;20142;-73
2024/01/27 07:46:40;;;;;;;5.80;2.37;;;;;;;7.65;52.80;100967.50;4398568;27;20165;-73
2024/01/27 07:49:12;;;;;;;3.35;1.90;;;;;;;7.43;53.10;100971.91;4394248;32;20149;-73
2024/01/27 07:51:41;;;;;;;;;;;;;;;7.40;52.85;100970.25;4394465;32;20133;-73
2024/01/27 07:54:12;;;;;;;4.20;1.95;;;;;;;7.43;52.78;100985.94;4394122;32;20250;-73
2024/01/27 07:56:42;;;;;;;4.05;2.62;;;;;;;7.29;53.39;100977.72;4394187;32;20545;-73
2024/01/27 07:59:15;;;;;;;2.03;1.60;;;;;;;7.79;52.61;100978.34;4394335;32;20149;-73
2024/01/27 08:01:44;;;;;;;4.25;2.85;;;;;;;8.35;51.15;100987.47;4394095;32;20495;-73
2024/01/27 08:04:18;;;;;;;8.52;2.85;;;;;;;8.60;50.35;100987.31;4394053;32;20141;-73
2024/01/27 08:06:51;;;;;;;4.70;2.37;;;;;;;8.84;49.54;101001.22;4393592;32;20161;-74
2024/01/27 08:09:20;;;;;;;3.17;1.98;;;;;;;9.22;48.62;101001.28;4393884;32;20153;-74
2024/01/27 08:11:52;;;;;;;5.47;2.20;;;;;;;9.69;47.61;100998.19;4393619;32;20165;-72
2024/01/27 08:14:23;;;;;;;4.82;2.22;;;;;;;9.83;46.93;101022.22;4394228;32;20482;-72
2024/01/27 08:16:53;;;;;;;5.30;2.87;;;;;;;10.26;49.75;101028.09;4397539;27;20165;-72
2024/01/27 08:19:28;;;;;;;5.60;1.50;;;;;;;11.45;45.42;101021.81;4378555;32;20160;-72
2024/01/27 08:21:57;;;;;;;4.45;1.77;;;;;;;11.93;43.23;101012.06;4378450;32;20142;-72
2024/01/27 08:24:27;;;;;;;2.75;1.48;;;;;;;11.62;42.29;101020.84;4378491;32;20204;-72
2024/01/27 08:26:56;;;;;;;4.45;1.80;;;;;;;11.58;42.58;101016.66;4378327;32;20229;-72
2024/01/27 08:29:26;;;;;;;1.83;1.25;;;;;;;11.90;41.87;101024.66;4378619;32;20157;-72
2024/01/27 08:31:55;;;;;;;3.62;1.70;;;;;;;12.13;41.19;101002.09;4378524;32;20150;-72
2024/01/27 08:34:24;;;;;;;7.30;1.85;;;;;;;12.12;41.15;101016.31;4378512;32;20161;-72
2024/01/27 08:37:01;;;;;;;3.37;1.70;;;;;;;12.22;41.05;101017.47;4371910;32;20129;-72
2024/01/27 08:39:30;;;;;;;3.65;1.70;;;;;;;12.00;40.94;101017.88;4378153;32;20150;-72
2024/01/27 08:41:59;;;;;;;4.40;1.87;;;;;;;12.40;40.51;101027.03;4378174;32;20154;-72
2024/01/27 08:44:28;;;;;;;5.50;2.28;;;;;;;12.30;39.91;101018.75;4381227;32;20141;-72
2024/01/27 08:46:58;;;;;;;2.55;1.90;;;;;;;12.15;40.49;101027.59;4397760;27;20181;-72
2024/01/27 08:49:30;;;;;;;2.28;1.50;;;;;;;12.37;40.27;101027.22;4392727;32;20146;-72
2024/01/27 08:52:01;;;;;;;6.95;2.20;;;;;;;12.22;40.21;101039.59;4393208;32;20174;-72
2024/01/27 08:54:30;;;;;;;9.13;1.58;;;;;;;12.13;40.18;101032.16;4393229;32;20146;-72
2024/01/27 08:57:00;;;;;;;3.70;1.65;;;;;;;12.21;40.18;101039.69;4393109;32;20396;-72
2024/01/27 08:59:29;;;;;;;2.78;1.70;;;;;;;12.68;39.49;101042.22;4393507;32;20257;-72
2024/01/27 09:01:58;;;;;;;1.58;1.30;;;;;;;12.43;39.29;101058.78;4392938;32;20169;-72
2024/01/27 09:04:30;;;;;;;6.45;2.08;;;;;;;12.31;39.26;101038.19;4393426;32;20142;-72
2024/01/27 09:07:00;;;;;;;4.05;1.60;;;;;;;11.20;40.76;101051.44;4392998;32;20414;-72
2024/01/27 09:09:30;;;;;;;6.57;2.22;;;;;;;11.14;40.89;101069.50;4393414;32;20153;-72
2024/01/27 09:12:00;;;;;;;4.15;2.17;;;;;;;10.83;41.62;101039.28;4393124;32;20149;-72
2024/01/27 09:14:29;;;;;;;6.45;2.30;;;;;;;11.03;42.22;101068.25;4393435;32;20150;-72
2024/01/27 09:16:58;;;;;;;8.60;3.80;;;;;;;11.21;41.84;101061.13;4393148;27;20434;-72
2024/01/27 09:19:32;;;;;;;6.43;3.85;;;;;;;10.75;41.68;101062.69;4393120;32;20165;-72
2024/01/27 09:22:03;;;;;;;13.25;6.12;;;;;;;10.99;41.85;101060.56;4387297;32;20161;-72
2024/01/27 09:24:36;;;;;;;7.70;3.22;;;;;;;11.48;41.03;101063.22;4393195;32;20170;-72
2024/01/27 09:27:06;;;;;;;5.85;4.22;;;;;;;10.94;41.21;101060.78;4392745;32;20157;-72
2024/01/27 09:29:36;;;;;;;6.80;2.87;;;;;;;10.75;41.97;101065.34;4393436;32;20165;-72
2024/01/27 09:32:07;;;;;;;7.40;4.65;;;;;;;10.65;42.39;101058.78;4392697;32;20153;-72
2024/01/27 09:34:39;;;;;;;5.28;2.92;;;;;;;10.57;42.80;101068.00;4393067;32;20161;-72
2024/01/27 09:37:13;;;;;;;8.38;4.07;;;;;;;10.33;42.37;101056.84;4392697;32;20157;-72
2024/01/27 09:39:42;;;;;;;6.87;2.50;;;;;;;10.36;42.23;101041.72;4392915;32;20148;-72
2024/01/27 09:42:14;;;;;;;4.72;2.35;;;;;;;10.49;42.65;101054.28;4392814;32;20153;-72
2024/01/27 09:44:45;;;;;;;5.65;2.65;;;;;;;10.99;41.82;101048.13;4392638;32;20146;-72
2024/01/27 09:47:15;;;;;;;7.12;2.87;;;;;;;11.13;41.37;101051.88;4377416;27;20174;-72
2024/01/27 09:49:45;;;;;;;7.10;2.92;;;;;;;11.37;40.53;101053.22;4362992;32;20162;-72
2024/01/27 09:52:18;;;;;;;7.70;3.83;;;;;;;11.31;40.09;101050.87;4362749;32;20142;-72
2024/01/27 09:54:46;;;;;;;4.47;2.10;;;;;;;11.33;39.99;101063.13;4362877;32;20154;-72
2024/01/27 09:57:18;;;;;;;5.50;1.98;;;;;;;11.82;39.07;101068.41;4362900;32;20230;-72
2024/01/27 09:59:50;;;;;;;5.25;2.25;;;;;;;11.75;38.64;101076.78;4362639;32;20457;-72
2024/01/27 10:02:20;;;;;;;7.03;2.85;;;;;;;11.38;38.89;101092.06;4363178;33;20395;-72
2024/01/27 10:04:49;;;;;;;7.55;3.28;;;;;;;11.68;38.97;101086.03;4348159;33;20141;-72
2024/01/27 10:07:20;;;;;;;8.38;3.42;;;;;;;11.99;38.46;101083.41;4347741;33;20138;-72
2024/01/27 10:09:50;;;;;;;3.80;2.00;;;;;;;12.05;37.60;101071.59;4355529;33;20170;-72
2024/01/27 10:12:22;;;;;;;10.20;3.12;;;;;;;11.50;37.71;101077.28;4358270;33;20166;-72
2024/01/27 10:14:53;;;;;;;4.32;2.60;;;;;;;11.56;37.92;101074.28;4347939;33;20138;-72
2024/01/27 10:17:23;;;;;;;5.40;2.17;;;;;;;11.83;39.02;101077.25;4373084;27;20141;-72
2024/01/27 10:20:01;;;;;;;5.53;2.25;;;;;;;11.70;37.65;101073.53;4377565;32;20142;-72
2024/01/27 10:22:39;;;;;;;6.55;2.95;;;;;;;11.64;38.50;101076.50;4377486;32;20184;-72
2024/01/27 10:25:10;;;;;;;6.03;2.90;;;;;;;11.53;37.78;101067.34;4377624;32;20165;-72
2024/01/27 10:27:45;;;;;;;5.30;2.10;;;;;;;12.00;37.83;101061.25;4377760;32;20142;-72
2024/01/27 10:30:17;;;;;;;5.93;2.33;;;;;;;11.99;37.16;101069.28;4377624;32;20161;-72
2024/01/27 10:32:56;;;;;;;4.32;2.33;;;;;;;11.60;38.03;101057.28;4377626;32;20478;-72
2024/01/27 10:35:26;;;;;;;5.50;2.47;;;;;;;11.92;37.89;101068.78;4377916;32;20165;-72
2024/01/27 10:37:57;;;;;;;4.45;1.70;;;;;;;11.67;37.68;101063.94;4377626;32;20177;-72
2024/01/27 10:40:28;;;;;;;5.05;2.30;;;;;;;11.36;38.38;101075.34;4389200;32;20161;-72
2024/01/27 10:43:03;;;;;;;11.25;3.37;;;;;;;11.20;38.19;101077.13;4384054;32;20383;-72
2024/01/27 10:45:37;;;;;;;6.53;4.10;;;;;;;11.55;38.05;101072.56;4377462;32;20168;-72
2024/01/27 10:48:09;;;;;;;7.00;2.20;;;;;;;11.87;38.09;101077.94;4368077;27;20146;-72
2024/01/27 10:50:39;;;;;;;7.10;2.62;;;;;;;11.52;37.63;101055.03;4362583;32;20216;-72
2024/01/27 10:53:24;;;;;;;9.63;2.03;;;;;;;11.00;38.63;101072.88;4362903;33;20138;-72
2024/01/27 10:55:55;;;;;;;7.97;3.03;;;;;;;10.80;39.20;101087.16;4362557;32;20153;-72
2024/01/27 10:58:25;;;;;;;4.72;2.17;;;;;;;11.03;37.66;101070.91;4360270;32;20154;-72
2024/01/27 11:00:57;;;;;;;8.52;2.58;;;;;;;11.10;38.40;101090.03;4377555;32;20146;-72
2024/01/27 11:03:28;;;;;;;6.00;1.80;;;;;;;11.08;38.48;101098.03;4377418;32;20535;-72
2024/01/27 11:05:59;;;;;;;7.05;2.67;;;;;;;11.18;38.46;101086.97;4376809;32;20149;-72
2024/01/27 11:11:09;;;;;;;7.22;2.45;;;;;;;9.91;40.55;101096.81;4376286;32;20133;-72
2024/01/27 11:13:41;;;;;;;;;;;;;;;9.91;40.52;101102.13;4376819;32;20146;-72
2024/01/27 11:16:17;;;;;;;5.25;2.12;;;;;;;10.20;40.26;101081.31;4384396;27;20297;-72
2024/01/27 11:18:49;;;;;;;6.57;2.25;;;;;;;10.15;40.83;101088.63;4391605;32;20145;-72
2024/01/27 11:21:20;;;;;;;4.40;1.77;;;;;;;10.48;40.12;101089.62;4391670;32;20158;-72
2024/01/27 11:23:51;;;;;;;6.15;1.73;;;;;;;10.04;40.65;101083.84;4391875;32;20237;-72
2024/01/27 11:26:22;;;;;;;8.65;2.50;;;;;;;9.63;40.96;101086.66;4392242;32;20169;-72
2024/01/27 11:28:51;;;;;;;4.00;1.73;;;;;;;8.95;42.29;101088.84;4391753;32;20491;-72
2024/01/27 11:31:21;;;;;;;6.68;2.33;;;;;;;8.83;42.68;101081.47;4391652;32;20130;-72
2024/01/27 11:33:52;;;;;;;2.80;1.70;;;;;;;8.61;42.55;101078.84;4391664;32;20141;-71
2024/01/27 11:36:23;;;;;;;;;;;;;;;8.16;42.93;101078.94;4392107;32;20141;-72
2024/01/27 11:38:56;;;;;;;10.65;2.08;;;;;;;8.42;43.32;101072.62;4392115;32;20037;-72
2024/01/27 11:41:27;;;;;;;3.35;2.15;;;;;;;8.27;44.17;101058.22;4392229;32;20144;-72
2024/01/27 11:43:59;;;;;;;3.90;2.20;;;;;;;8.82;43.73;101064.72;4391780;32;20161;-72
2024/01/27 11:46:28;;;;;;;3.95;2.30;;;;;;;9.07;43.78;101055.72;4381660;27;20162;-72
2024/01/27 11:48:58;;;;;;;8.27;2.50;;;;;;;9.30;44.06;101074.03;4376269;32;20169;-72
2024/01/27 11:51:28;;;;;;;5.75;2.42;;;;;;;9.09;44.31;101060.00;4376569;32;20435;-72
2024/01/27 11:53:58;;;;;;;5.80;2.22;;;;;;;8.90;43.89;101053.81;4376789;32;20473;-72
2024/01/27 11:56:28;;;;;;;4.00;2.12;;;;;;;8.80;43.83;101061.28;4376870;32;20572;-72
2024/01/27 11:58:58;;;;;;;6.75;2.33;;;;;;;8.72;44.46;101060.78;4376862;32;20484;-72